sensor_id;sensor_type;location;lat;lon;timestamp;P1;durP1;ratioP1;P2;durP2;ratioP2
15132;SDS011;7667;51.232;17.110;2022-11-10T00:01:17;27.50;;;16.00;;
15132;SDS011;7667;51.232;17.110;2022-11-10T00:03:47;25.63;;;15.87;;
15132;SDS011;7667;51.232;17.110;2022-11-10T00:06:15;24.60;;;16.40;;
15132;SDS011;7667;51.232;17.110;2022-11-10T00:08:43;25.17;;;16.00;;
15132;SDS011;7667;51.232;17.110;2022-11-10T00:11:11;24.73;;;17.10;;
15132;SDS011;7667;51.232;17.110;2022-11-10T00:13:38;26.70;;;17.30;;
15132;SDS011;7667;51.232;17.110;2022-11-10T00:16:25;27.87;;;18.37;;
15132;SDS011;7667;51.232;17.110;2022-11-10T00:19:12;26.13;;;17.47;;
15132;SDS011;7667;51.232;17.110;2022-11-10T00:21:39;27.73;;;18.37;;
15132;SDS011;7667;51.232;17.110;2022-11-10T00:24:06;28.70;;;17.90;;
15132;SDS011;7667;51.232;17.110;2022-11-10T00:26:34;29.03;;;18.77;;
15132;SDS011;7667;51.232;17.110;2022-11-10T00:29:02;28.20;;;18.30;;
15132;SDS011;7667;51.232;17.110;2022-11-10T00:31:29;26.70;;;18.80;;
15132;SDS011;7667;51.232;17.110;2022-11-10T00:33:57;28.07;;;17.93;;
15132;SDS011;7667;51.232;17.110;2022-11-10T00:36:24;28.30;;;19.37;;
15132;SDS011;7667;51.232;17.110;2022-11-10T00:38:52;28.57;;;19.20;;
15132;SDS011;7667;51.232;17.110;2022-11-10T00:41:20;30.67;;;19.27;;
15132;SDS011;7667;51.232;17.110;2022-11-10T00:43:48;27.67;;;17.80;;
15132;SDS011;7667;51.232;17.110;2022-11-10T00:46:15;28.83;;;18.40;;
15132;SDS011;7667;51.232;17.110;2022-11-10T00:48:43;30.23;;;20.23;;
15132;SDS011;7667;51.232;17.110;2022-11-10T00:51:21;27.27;;;18.03;;
15132;SDS011;7667;51.232;17.110;2022-11-10T00:53:51;28.37;;;17.97;;
15132;SDS011;7667;51.232;17.110;2022-11-10T00:56:20;30.13;;;19.30;;
15132;SDS011;7667;51.232;17.110;2022-11-10T00:58:48;30.10;;;19.70;;
15132;SDS011;7667;51.232;17.110;2022-11-10T01:01:17;30.27;;;19.57;;
15132;SDS011;7667;51.232;17.110;2022-11-10T01:03:46;31.67;;;19.27;;
15132;SDS011;7667;51.232;17.110;2022-11-10T01:06:15;31.70;;;19.80;;
15132;SDS011;7667;51.232;17.110;2022-11-10T01:08:44;28.77;;;19.70;;
15132;SDS011;7667;51.232;17.110;2022-11-10T01:11:13;30.10;;;19.43;;
15132;SDS011;7667;51.232;17.110;2022-11-10T01:13:53;28.97;;;19.43;;
15132;SDS011;7667;51.232;17.110;2022-11-10T01:16:23;30.17;;;20.40;;
15132;SDS011;7667;51.232;17.110;2022-11-10T01:18:54;30.83;;;20.00;;
15132;SDS011;7667;51.232;17.110;2022-11-10T01:21:25;28.20;;;19.00;;
15132;SDS011;7667;51.232;17.110;2022-11-10T01:23:54;29.10;;;18.77;;
15132;SDS011;7667;51.232;17.110;2022-11-10T01:26:22;29.13;;;19.43;;
15132;SDS011;7667;51.232;17.110;2022-11-10T01:28:50;28.50;;;18.90;;
15132;SDS011;7667;51.232;17.110;2022-11-10T01:31:19;29.33;;;19.23;;
15132;SDS011;7667;51.232;17.110;2022-11-10T01:33:47;30.57;;;18.97;;
15132;SDS011;7667;51.232;17.110;2022-11-10T01:36:15;29.40;;;18.93;;
15132;SDS011;7667;51.232;17.110;2022-11-10T01:38:43;27.27;;;18.67;;
15132;SDS011;7667;51.232;17.110;2022-11-10T01:41:11;28.37;;;18.43;;
15132;SDS011;7667;51.232;17.110;2022-11-10T01:43:40;30.30;;;20.53;;
15132;SDS011;7667;51.232;17.110;2022-11-10T01:46:09;27.10;;;18.83;;
15132;SDS011;7667;51.232;17.110;2022-11-10T01:51:33;30.67;;;20.63;;
15132;SDS011;7667;51.232;17.110;2022-11-10T01:54:12;26.43;;;18.00;;
15132;SDS011;7667;51.232;17.110;2022-11-10T01:56:46;29.50;;;19.57;;
15132;SDS011;7667;51.232;17.110;2022-11-10T01:59:20;29.70;;;20.03;;
15132;SDS011;7667;51.232;17.110;2022-11-10T02:01:57;28.93;;;19.00;;
15132;SDS011;7667;51.232;17.110;2022-11-10T02:04:31;30.20;;;19.73;;
15132;SDS011;7667;51.232;17.110;2022-11-10T02:07:00;30.67;;;19.17;;
15132;SDS011;7667;51.232;17.110;2022-11-10T02:09:28;28.17;;;19.07;;
15132;SDS011;7667;51.232;17.110;2022-11-10T02:11:55;30.20;;;19.30;;
15132;SDS011;7667;51.232;17.110;2022-11-10T02:14:23;27.90;;;18.13;;
15132;SDS011;7667;51.232;17.110;2022-11-10T02:16:51;28.40;;;19.07;;
15132;SDS011;7667;51.232;17.110;2022-11-10T02:19:22;27.40;;;18.60;;
15132;SDS011;7667;51.232;17.110;2022-11-10T02:21:51;28.87;;;18.93;;
15132;SDS011;7667;51.232;17.110;2022-11-10T02:24:19;29.03;;;17.70;;
15132;SDS011;7667;51.232;17.110;2022-11-10T02:26:52;28.03;;;17.97;;
15132;SDS011;7667;51.232;17.110;2022-11-10T02:29:20;25.87;;;18.30;;
15132;SDS011;7667;51.232;17.110;2022-11-10T02:31:49;25.67;;;17.83;;
15132;SDS011;7667;51.232;17.110;2022-11-10T02:34:17;26.37;;;18.13;;
15132;SDS011;7667;51.232;17.110;2022-11-10T02:36:45;27.23;;;18.33;;
15132;SDS011;7667;51.232;17.110;2022-11-10T02:39:12;25.93;;;17.63;;
15132;SDS011;7667;51.232;17.110;2022-11-10T02:41:40;26.77;;;17.90;;
15132;SDS011;7667;51.232;17.110;2022-11-10T02:44:07;28.87;;;17.77;;
15132;SDS011;7667;51.232;17.110;2022-11-10T02:46:35;27.97;;;18.27;;
15132;SDS011;7667;51.232;17.110;2022-11-10T02:49:03;27.53;;;18.60;;
15132;SDS011;7667;51.232;17.110;2022-11-10T02:51:30;29.53;;;18.40;;
15132;SDS011;7667;51.232;17.110;2022-11-10T02:53:58;25.70;;;17.33;;
15132;SDS011;7667;51.232;17.110;2022-11-10T02:56:25;26.03;;;17.77;;
15132;SDS011;7667;51.232;17.110;2022-11-10T02:58:53;25.10;;;17.63;;
15132;SDS011;7667;51.232;17.110;2022-11-10T03:01:20;26.97;;;17.67;;
15132;SDS011;7667;51.232;17.110;2022-11-10T03:03:48;24.83;;;16.90;;
15132;SDS011;7667;51.232;17.110;2022-11-10T03:06:15;26.60;;;17.93;;
15132;SDS011;7667;51.232;17.110;2022-11-10T03:08:43;23.33;;;17.00;;
15132;SDS011;7667;51.232;17.110;2022-11-10T03:11:10;24.93;;;17.50;;
15132;SDS011;7667;51.232;17.110;2022-11-10T03:13:38;24.77;;;17.13;;
15132;SDS011;7667;51.232;17.110;2022-11-10T03:16:25;26.87;;;17.17;;
15132;SDS011;7667;51.232;17.110;2022-11-10T03:18:53;26.93;;;17.50;;
15132;SDS011;7667;51.232;17.110;2022-11-10T03:21:20;23.73;;;16.27;;
15132;SDS011;7667;51.232;17.110;2022-11-10T03:23:48;25.60;;;17.10;;
15132;SDS011;7667;51.232;17.110;2022-11-10T03:26:15;23.27;;;16.83;;
15132;SDS011;7667;51.232;17.110;2022-11-10T03:28:43;25.07;;;17.00;;
15132;SDS011;7667;51.232;17.110;2022-11-10T03:31:10;23.30;;;15.80;;
15132;SDS011;7667;51.232;17.110;2022-11-10T03:33:37;23.97;;;17.03;;
15132;SDS011;7667;51.232;17.110;2022-11-10T03:36:05;26.37;;;18.23;;
15132;SDS011;7667;51.232;17.110;2022-11-10T03:38:33;28.93;;;19.10;;
15132;SDS011;7667;51.232;17.110;2022-11-10T03:41:00;29.57;;;19.60;;
15132;SDS011;7667;51.232;17.110;2022-11-10T03:43:46;25.93;;;18.53;;
15132;SDS011;7667;51.232;17.110;2022-11-10T03:46:15;29.37;;;19.63;;
15132;SDS011;7667;51.232;17.110;2022-11-10T03:48:43;28.57;;;19.37;;
15132;SDS011;7667;51.232;17.110;2022-11-10T03:51:19;27.37;;;19.27;;
15132;SDS011;7667;51.232;17.110;2022-11-10T03:53:47;28.30;;;19.47;;
15132;SDS011;7667;51.232;17.110;2022-11-10T03:56:15;31.33;;;20.60;;
15132;SDS011;7667;51.232;17.110;2022-11-10T03:58:42;29.27;;;20.23;;
15132;SDS011;7667;51.232;17.110;2022-11-10T04:01:10;28.90;;;20.63;;
15132;SDS011;7667;51.232;17.110;2022-11-10T04:03:37;32.63;;;21.50;;
15132;SDS011;7667;51.232;17.110;2022-11-10T04:06:05;32.20;;;22.33;;
15132;SDS011;7667;51.232;17.110;2022-11-10T04:08:52;33.13;;;20.87;;
15132;SDS011;7667;51.232;17.110;2022-11-10T04:11:29;30.83;;;20.20;;
15132;SDS011;7667;51.232;17.110;2022-11-10T04:14:16;34.13;;;21.00;;
15132;SDS011;7667;51.232;17.110;2022-11-10T04:17:02;31.63;;;21.17;;
15132;SDS011;7667;51.232;17.110;2022-11-10T04:19:30;34.10;;;22.67;;
15132;SDS011;7667;51.232;17.110;2022-11-10T04:21:57;34.20;;;20.83;;
15132;SDS011;7667;51.232;17.110;2022-11-10T04:24:25;33.57;;;20.67;;
15132;SDS011;7667;51.232;17.110;2022-11-10T04:26:52;29.97;;;19.00;;
15132;SDS011;7667;51.232;17.110;2022-11-10T04:29:20;34.23;;;21.20;;
15132;SDS011;7667;51.232;17.110;2022-11-10T04:31:47;33.83;;;21.13;;
15132;SDS011;7667;51.232;17.110;2022-11-10T04:34:15;28.53;;;19.50;;
15132;SDS011;7667;51.232;17.110;2022-11-10T04:36:42;30.53;;;19.13;;
15132;SDS011;7667;51.232;17.110;2022-11-10T04:39:10;31.33;;;19.80;;
15132;SDS011;7667;51.232;17.110;2022-11-10T04:41:38;28.77;;;18.83;;
15132;SDS011;7667;51.232;17.110;2022-11-10T04:44:05;25.70;;;18.40;;
15132;SDS011;7667;51.232;17.110;2022-11-10T04:46:37;28.47;;;19.10;;
15132;SDS011;7667;51.232;17.110;2022-11-10T04:49:06;26.90;;;18.27;;
15132;SDS011;7667;51.232;17.110;2022-11-10T04:51:35;26.73;;;18.03;;
15132;SDS011;7667;51.232;17.110;2022-11-10T04:54:05;25.77;;;18.57;;
15132;SDS011;7667;51.232;17.110;2022-11-10T04:56:33;29.57;;;18.53;;
15132;SDS011;7667;51.232;17.110;2022-11-10T04:59:01;28.17;;;18.20;;
15132;SDS011;7667;51.232;17.110;2022-11-10T05:01:28;25.70;;;17.50;;
15132;SDS011;7667;51.232;17.110;2022-11-10T05:03:56;25.57;;;17.80;;
15132;SDS011;7667;51.232;17.110;2022-11-10T05:06:23;28.50;;;17.67;;
15132;SDS011;7667;51.232;17.110;2022-11-10T05:08:51;25.37;;;16.47;;
15132;SDS011;7667;51.232;17.110;2022-11-10T05:11:18;25.03;;;17.50;;
15132;SDS011;7667;51.232;17.110;2022-11-10T05:13:46;25.33;;;17.77;;
15132;SDS011;7667;51.232;17.110;2022-11-10T05:16:13;25.43;;;16.60;;
15132;SDS011;7667;51.232;17.110;2022-11-10T05:18:41;26.20;;;16.40;;
15132;SDS011;7667;51.232;17.110;2022-11-10T05:21:09;24.30;;;16.70;;
15132;SDS011;7667;51.232;17.110;2022-11-10T05:23:37;24.53;;;16.40;;
15132;SDS011;7667;51.232;17.110;2022-11-10T05:28:38;26.13;;;17.07;;
15132;SDS011;7667;51.232;17.110;2022-11-10T05:31:07;22.87;;;15.60;;
15132;SDS011;7667;51.232;17.110;2022-11-10T05:33:35;26.97;;;17.30;;
15132;SDS011;7667;51.232;17.110;2022-11-10T05:36:04;25.17;;;17.60;;
15132;SDS011;7667;51.232;17.110;2022-11-10T05:38:32;23.50;;;15.60;;
15132;SDS011;7667;51.232;17.110;2022-11-10T05:41:07;24.77;;;15.63;;
15132;SDS011;7667;51.232;17.110;2022-11-10T05:43:34;25.67;;;16.03;;
15132;SDS011;7667;51.232;17.110;2022-11-10T05:46:02;25.50;;;16.20;;
15132;SDS011;7667;51.232;17.110;2022-11-10T05:48:29;24.27;;;16.80;;
15132;SDS011;7667;51.232;17.110;2022-11-10T05:50:57;22.83;;;15.37;;
15132;SDS011;7667;51.232;17.110;2022-11-10T05:53:24;24.87;;;16.33;;
15132;SDS011;7667;51.232;17.110;2022-11-10T05:55:52;22.13;;;15.17;;
15132;SDS011;7667;51.232;17.110;2022-11-10T05:58:19;23.30;;;15.30;;
15132;SDS011;7667;51.232;17.110;2022-11-10T06:00:47;23.73;;;16.10;;
15132;SDS011;7667;51.232;17.110;2022-11-10T06:03:15;20.77;;;14.33;;
15132;SDS011;7667;51.232;17.110;2022-11-10T06:05:45;22.67;;;15.37;;
15132;SDS011;7667;51.232;17.110;2022-11-10T06:08:13;21.83;;;15.43;;
15132;SDS011;7667;51.232;17.110;2022-11-10T06:10:41;22.63;;;14.90;;
15132;SDS011;7667;51.232;17.110;2022-11-10T06:13:09;20.63;;;14.30;;
15132;SDS011;7667;51.232;17.110;2022-11-10T06:15:37;20.33;;;13.83;;
15132;SDS011;7667;51.232;17.110;2022-11-10T06:18:05;20.30;;;14.70;;
15132;SDS011;7667;51.232;17.110;2022-11-10T06:20:33;20.63;;;13.77;;
15132;SDS011;7667;51.232;17.110;2022-11-10T06:23:04;18.03;;;13.23;;
15132;SDS011;7667;51.232;17.110;2022-11-10T06:25:39;19.53;;;13.63;;
15132;SDS011;7667;51.232;17.110;2022-11-10T06:28:07;19.40;;;13.67;;
15132;SDS011;7667;51.232;17.110;2022-11-10T06:30:36;18.80;;;13.10;;
15132;SDS011;7667;51.232;17.110;2022-11-10T06:33:04;16.33;;;11.60;;
15132;SDS011;7667;51.232;17.110;2022-11-10T06:35:32;16.17;;;11.20;;
15132;SDS011;7667;51.232;17.110;2022-11-10T06:38:00;18.67;;;12.30;;
15132;SDS011;7667;51.232;17.110;2022-11-10T06:40:33;15.43;;;10.50;;
15132;SDS011;7667;51.232;17.110;2022-11-10T06:43:01;16.30;;;10.87;;
15132;SDS011;7667;51.232;17.110;2022-11-10T06:45:30;16.00;;;10.83;;
15132;SDS011;7667;51.232;17.110;2022-11-10T06:48:01;15.23;;;11.27;;
15132;SDS011;7667;51.232;17.110;2022-11-10T06:50:32;15.10;;;10.80;;
15132;SDS011;7667;51.232;17.110;2022-11-10T06:53:00;15.50;;;11.50;;
15132;SDS011;7667;51.232;17.110;2022-11-10T06:55:28;13.97;;;10.80;;
15132;SDS011;7667;51.232;17.110;2022-11-10T06:57:56;14.77;;;10.80;;
15132;SDS011;7667;51.232;17.110;2022-11-10T07:00:24;15.87;;;11.20;;
15132;SDS011;7667;51.232;17.110;2022-11-10T07:02:58;16.60;;;11.40;;
15132;SDS011;7667;51.232;17.110;2022-11-10T07:05:33;18.27;;;11.47;;
15132;SDS011;7667;51.232;17.110;2022-11-10T07:08:12;17.07;;;11.30;;
15132;SDS011;7667;51.232;17.110;2022-11-10T07:10:42;14.57;;;10.87;;
15132;SDS011;7667;51.232;17.110;2022-11-10T07:13:11;18.27;;;11.47;;
15132;SDS011;7667;51.232;17.110;2022-11-10T07:15:39;16.27;;;10.93;;
15132;SDS011;7667;51.232;17.110;2022-11-10T07:18:06;14.50;;;10.07;;
15132;SDS011;7667;51.232;17.110;2022-11-10T07:20:34;14.40;;;10.27;;
15132;SDS011;7667;51.232;17.110;2022-11-10T07:23:02;15.23;;;10.60;;
15132;SDS011;7667;51.232;17.110;2022-11-10T07:25:33;14.47;;;9.83;;
15132;SDS011;7667;51.232;17.110;2022-11-10T07:28:05;12.63;;;9.00;;
15132;SDS011;7667;51.232;17.110;2022-11-10T07:30:36;12.30;;;8.60;;
15132;SDS011;7667;51.232;17.110;2022-11-10T07:33:04;14.47;;;8.77;;
15132;SDS011;7667;51.232;17.110;2022-11-10T07:35:41;12.13;;;8.13;;
15132;SDS011;7667;51.232;17.110;2022-11-10T07:38:09;11.53;;;7.57;;
15132;SDS011;7667;51.232;17.110;2022-11-10T07:40:39;11.03;;;7.67;;
15132;SDS011;7667;51.232;17.110;2022-11-10T07:43:07;11.00;;;7.43;;
15132;SDS011;7667;51.232;17.110;2022-11-10T07:45:34;11.40;;;7.50;;
15132;SDS011;7667;51.232;17.110;2022-11-10T07:48:02;9.20;;;6.60;;
15132;SDS011;7667;51.232;17.110;2022-11-10T07:50:32;10.00;;;6.40;;
15132;SDS011;7667;51.232;17.110;2022-11-10T07:53:04;9.00;;;6.20;;
15132;SDS011;7667;51.232;17.110;2022-11-10T07:55:35;9.83;;;6.27;;
15132;SDS011;7667;51.232;17.110;2022-11-10T07:58:04;8.63;;;6.27;;
15132;SDS011;7667;51.232;17.110;2022-11-10T08:00:32;9.77;;;6.00;;
15132;SDS011;7667;51.232;17.110;2022-11-10T08:03:05;7.97;;;5.80;;
15132;SDS011;7667;51.232;17.110;2022-11-10T08:05:37;8.13;;;5.80;;
15132;SDS011;7667;51.232;17.110;2022-11-10T08:08:05;10.70;;;6.33;;
15132;SDS011;7667;51.232;17.110;2022-11-10T08:10:33;8.80;;;6.23;;
15132;SDS011;7667;51.232;17.110;2022-11-10T08:13:03;9.03;;;6.07;;
15132;SDS011;7667;51.232;17.110;2022-11-10T08:15:33;9.67;;;6.07;;
15132;SDS011;7667;51.232;17.110;2022-11-10T08:18:05;8.13;;;5.70;;
15132;SDS011;7667;51.232;17.110;2022-11-10T08:20:46;9.13;;;5.83;;
15132;SDS011;7667;51.232;17.110;2022-11-10T08:23:14;9.33;;;5.87;;
15132;SDS011;7667;51.232;17.110;2022-11-10T08:25:43;10.07;;;6.30;;
15132;SDS011;7667;51.232;17.110;2022-11-10T08:28:13;9.23;;;5.83;;
15132;SDS011;7667;51.232;17.110;2022-11-10T08:30:43;8.17;;;5.27;;
15132;SDS011;7667;51.232;17.110;2022-11-10T08:33:13;8.40;;;5.63;;
15132;SDS011;7667;51.232;17.110;2022-11-10T08:35:44;7.93;;;5.83;;
15132;SDS011;7667;51.232;17.110;2022-11-10T08:38:19;9.53;;;6.00;;
15132;SDS011;7667;51.232;17.110;2022-11-10T08:40:48;8.17;;;5.47;;
15132;SDS011;7667;51.232;17.110;2022-11-10T08:43:16;9.10;;;5.00;;
15132;SDS011;7667;51.232;17.110;2022-11-10T08:45:45;6.83;;;4.80;;
15132;SDS011;7667;51.232;17.110;2022-11-10T08:48:14;6.87;;;5.27;;
15132;SDS011;7667;51.232;17.110;2022-11-10T08:50:44;6.67;;;4.60;;
15132;SDS011;7667;51.232;17.110;2022-11-10T08:53:15;6.73;;;4.70;;
15132;SDS011;7667;51.232;17.110;2022-11-10T08:55:47;5.93;;;4.73;;
15132;SDS011;7667;51.232;17.110;2022-11-10T08:58:16;7.80;;;5.30;;
15132;SDS011;7667;51.232;17.110;2022-11-10T09:00:46;8.90;;;4.70;;
15132;SDS011;7667;51.232;17.110;2022-11-10T09:03:15;5.83;;;4.17;;
15132;SDS011;7667;51.232;17.110;2022-11-10T09:05:49;5.77;;;3.97;;
15132;SDS011;7667;51.232;17.110;2022-11-10T09:08:24;7.40;;;3.80;;
15132;SDS011;7667;51.232;17.110;2022-11-10T09:10:51;6.03;;;3.53;;
15132;SDS011;7667;51.232;17.110;2022-11-10T09:13:19;7.80;;;3.70;;
15132;SDS011;7667;51.232;17.110;2022-11-10T09:15:55;9.13;;;3.67;;
15132;SDS011;7667;51.232;17.110;2022-11-10T09:18:31;5.97;;;2.97;;
15132;SDS011;7667;51.232;17.110;2022-11-10T09:21:00;4.83;;;3.10;;
15132;SDS011;7667;51.232;17.110;2022-11-10T09:23:32;6.37;;;3.30;;
15132;SDS011;7667;51.232;17.110;2022-11-10T09:25:59;5.30;;;3.33;;
15132;SDS011;7667;51.232;17.110;2022-11-10T09:28:27;6.60;;;3.63;;
15132;SDS011;7667;51.232;17.110;2022-11-10T09:30:54;7.40;;;3.07;;
15132;SDS011;7667;51.232;17.110;2022-11-10T09:33:22;5.33;;;3.37;;
15132;SDS011;7667;51.232;17.110;2022-11-10T09:35:50;4.87;;;3.07;;
15132;SDS011;7667;51.232;17.110;2022-11-10T09:38:23;6.03;;;2.90;;
15132;SDS011;7667;51.232;17.110;2022-11-10T09:40:54;7.03;;;2.97;;
15132;SDS011;7667;51.232;17.110;2022-11-10T09:46:23;7.13;;;2.90;;
15132;SDS011;7667;51.232;17.110;2022-11-10T09:51:51;6.43;;;2.77;;
15132;SDS011;7667;51.232;17.110;2022-11-10T09:54:26;4.00;;;2.60;;
15132;SDS011;7667;51.232;17.110;2022-11-10T09:57:03;4.90;;;2.43;;
15132;SDS011;7667;51.232;17.110;2022-11-10T09:59:35;4.80;;;2.30;;
15132;SDS011;7667;51.232;17.110;2022-11-10T10:02:23;4.80;;;2.10;;
15132;SDS011;7667;51.232;17.110;2022-11-10T10:13:41;3.77;;;2.30;;
15132;SDS011;7667;51.232;17.110;2022-11-10T10:16:50;3.67;;;1.93;;
15132;SDS011;7667;51.232;17.110;2022-11-10T10:19:33;5.17;;;2.33;;
15132;SDS011;7667;51.232;17.110;2022-11-10T10:25:38;7.47;;;2.40;;
15132;SDS011;7667;51.232;17.110;2022-11-10T10:28:24;4.87;;;2.10;;
15132;SDS011;7667;51.232;17.110;2022-11-10T10:31:21;5.87;;;2.40;;
15132;SDS011;7667;51.232;17.110;2022-11-10T10:33:50;5.53;;;2.47;;
15132;SDS011;7667;51.232;17.110;2022-11-10T10:36:23;4.53;;;2.10;;
15132;SDS011;7667;51.232;17.110;2022-11-10T10:39:02;3.77;;;1.67;;
15132;SDS011;7667;51.232;17.110;2022-11-10T10:41:39;3.33;;;1.80;;
15132;SDS011;7667;51.232;17.110;2022-11-10T10:44:12;3.27;;;1.80;;
15132;SDS011;7667;51.232;17.110;2022-11-10T10:46:48;3.73;;;1.73;;
15132;SDS011;7667;51.232;17.110;2022-11-10T10:54:59;3.60;;;2.00;;
15132;SDS011;7667;51.232;17.110;2022-11-10T10:57:32;3.30;;;1.70;;
15132;SDS011;7667;51.232;17.110;2022-11-10T11:03:01;3.60;;;1.73;;
15132;SDS011;7667;51.232;17.110;2022-11-10T11:08:31;3.17;;;1.60;;
15132;SDS011;7667;51.232;17.110;2022-11-10T11:11:07;3.83;;;1.80;;
15132;SDS011;7667;51.232;17.110;2022-11-10T11:13:36;2.13;;;1.50;;
15132;SDS011;7667;51.232;17.110;2022-11-10T11:16:05;3.00;;;1.50;;
15132;SDS011;7667;51.232;17.110;2022-11-10T11:18:36;1.67;;;1.17;;
15132;SDS011;7667;51.232;17.110;2022-11-10T11:26:45;2.27;;;1.20;;
15132;SDS011;7667;51.232;17.110;2022-11-10T11:29:40;3.03;;;1.40;;
15132;SDS011;7667;51.232;17.110;2022-11-10T11:43:52;3.83;;;1.43;;
15132;SDS011;7667;51.232;17.110;2022-11-10T11:46:42;2.97;;;1.53;;
15132;SDS011;7667;51.232;17.110;2022-11-10T11:52:32;3.97;;;1.37;;
15132;SDS011;7667;51.232;17.110;2022-11-10T11:58:28;2.07;;;1.43;;
15132;SDS011;7667;51.232;17.110;2022-11-10T12:09:47;5.17;;;1.40;;
15132;SDS011;7667;51.232;17.110;2022-11-10T12:18:36;1.47;;;1.07;;
15132;SDS011;7667;51.232;17.110;2022-11-10T12:21:44;2.77;;;1.30;;
15132;SDS011;7667;51.232;17.110;2022-11-10T12:26:59;2.60;;;1.23;;
15132;SDS011;7667;51.232;17.110;2022-11-10T12:29:40;3.67;;;1.40;;
15132;SDS011;7667;51.232;17.110;2022-11-10T12:32:15;1.87;;;1.20;;
15132;SDS011;7667;51.232;17.110;2022-11-10T12:35:19;3.63;;;1.50;;
15132;SDS011;7667;51.232;17.110;2022-11-10T12:37:57;2.50;;;1.43;;
15132;SDS011;7667;51.232;17.110;2022-11-10T12:40:38;4.97;;;1.40;;
15132;SDS011;7667;51.232;17.110;2022-11-10T12:43:28;3.20;;;1.47;;
15132;SDS011;7667;51.232;17.110;2022-11-10T12:46:05;3.10;;;1.20;;
15132;SDS011;7667;51.232;17.110;2022-11-10T12:49:01;3.13;;;1.30;;
15132;SDS011;7667;51.232;17.110;2022-11-10T12:52:46;2.50;;;1.30;;
15132;SDS011;7667;51.232;17.110;2022-11-10T12:54:58;5.57;;;1.20;;
15132;SDS011;7667;51.232;17.110;2022-11-10T12:57:26;2.60;;;1.10;;
15132;SDS011;7667;51.232;17.110;2022-11-10T13:02:53;1.53;;;0.90;;
15132;SDS011;7667;51.232;17.110;2022-11-10T13:08:05;1.43;;;0.90;;
15132;SDS011;7667;51.232;17.110;2022-11-10T13:11:03;1.80;;;0.87;;
15132;SDS011;7667;51.232;17.110;2022-11-10T13:13:44;3.70;;;1.17;;
15132;SDS011;7667;51.232;17.110;2022-11-10T13:19:07;3.07;;;1.37;;
15132;SDS011;7667;51.232;17.110;2022-11-10T13:24:23;4.57;;;1.20;;
15132;SDS011;7667;51.232;17.110;2022-11-10T13:29:29;3.60;;;1.27;;
15132;SDS011;7667;51.232;17.110;2022-11-10T13:34:41;2.47;;;1.20;;
15132;SDS011;7667;51.232;17.110;2022-11-10T13:56:18;2.43;;;1.30;;
15132;SDS011;7667;51.232;17.110;2022-11-10T13:59:20;2.57;;;1.00;;
15132;SDS011;7667;51.232;17.110;2022-11-10T14:02:14;1.80;;;1.03;;
15132;SDS011;7667;51.232;17.110;2022-11-10T14:04:59;4.47;;;1.10;;
15132;SDS011;7667;51.232;17.110;2022-11-10T14:07:38;2.90;;;1.40;;
15132;SDS011;7667;51.232;17.110;2022-11-10T14:10:10;3.00;;;1.00;;
15132;SDS011;7667;51.232;17.110;2022-11-10T14:12:44;2.43;;;1.20;;
15132;SDS011;7667;51.232;17.110;2022-11-10T14:15:19;4.13;;;1.40;;
15132;SDS011;7667;51.232;17.110;2022-11-10T14:17:51;2.63;;;1.27;;
15132;SDS011;7667;51.232;17.110;2022-11-10T14:22:57;3.63;;;1.50;;
15132;SDS011;7667;51.232;17.110;2022-11-10T14:25:29;3.70;;;1.37;;
15132;SDS011;7667;51.232;17.110;2022-11-10T14:28:02;4.93;;;1.47;;
15132;SDS011;7667;51.232;17.110;2022-11-10T14:30:55;3.17;;;1.47;;
15132;SDS011;7667;51.232;17.110;2022-11-10T14:33:23;2.63;;;1.00;;
15132;SDS011;7667;51.232;17.110;2022-11-10T14:36:00;2.87;;;1.33;;
15132;SDS011;7667;51.232;17.110;2022-11-10T14:38:30;2.00;;;1.03;;
15132;SDS011;7667;51.232;17.110;2022-11-10T14:41:00;2.90;;;1.33;;
15132;SDS011;7667;51.232;17.110;2022-11-10T14:43:31;4.77;;;1.37;;
15132;SDS011;7667;51.232;17.110;2022-11-10T14:46:05;2.20;;;1.30;;
15132;SDS011;7667;51.232;17.110;2022-11-10T14:48:34;4.40;;;1.27;;
15132;SDS011;7667;51.232;17.110;2022-11-10T14:51:04;4.97;;;1.43;;
15132;SDS011;7667;51.232;17.110;2022-11-10T14:53:49;2.10;;;1.20;;
15132;SDS011;7667;51.232;17.110;2022-11-10T14:56:24;2.87;;;1.10;;
15132;SDS011;7667;51.232;17.110;2022-11-10T14:58:56;4.67;;;1.60;;
15132;SDS011;7667;51.232;17.110;2022-11-10T15:01:28;3.40;;;1.30;;
15132;SDS011;7667;51.232;17.110;2022-11-10T15:04:02;5.10;;;1.50;;
15132;SDS011;7667;51.232;17.110;2022-11-10T15:06:34;4.53;;;1.57;;
15132;SDS011;7667;51.232;17.110;2022-11-10T15:09:20;4.50;;;1.27;;
15132;SDS011;7667;51.232;17.110;2022-11-10T15:14:55;3.33;;;1.50;;
15132;SDS011;7667;51.232;17.110;2022-11-10T15:20:29;4.53;;;1.50;;
15132;SDS011;7667;51.232;17.110;2022-11-10T15:23:03;15.13;;;8.40;;
15132;SDS011;7667;51.232;17.110;2022-11-10T15:25:48;4.77;;;2.00;;
15132;SDS011;7667;51.232;17.110;2022-11-10T15:28:22;3.77;;;2.03;;
15132;SDS011;7667;51.232;17.110;2022-11-10T15:31:05;5.60;;;2.30;;
15132;SDS011;7667;51.232;17.110;2022-11-10T15:33:38;3.73;;;2.50;;
15132;SDS011;7667;51.232;17.110;2022-11-10T15:39:21;4.93;;;1.93;;
15132;SDS011;7667;51.232;17.110;2022-11-10T15:41:55;4.90;;;2.20;;
15132;SDS011;7667;51.232;17.110;2022-11-10T15:44:25;6.37;;;2.10;;
15132;SDS011;7667;51.232;17.110;2022-11-10T15:46:56;4.97;;;2.73;;
15132;SDS011;7667;51.232;17.110;2022-11-10T15:49:25;5.30;;;2.10;;
15132;SDS011;7667;51.232;17.110;2022-11-10T15:51:59;4.80;;;2.17;;
15132;SDS011;7667;51.232;17.110;2022-11-10T15:54:30;6.57;;;2.10;;
15132;SDS011;7667;51.232;17.110;2022-11-10T15:57:01;3.43;;;1.80;;
15132;SDS011;7667;51.232;17.110;2022-11-10T15:59:29;4.87;;;2.00;;
15132;SDS011;7667;51.232;17.110;2022-11-10T16:01:57;5.57;;;2.67;;
15132;SDS011;7667;51.232;17.110;2022-11-10T16:04:25;9.80;;;3.57;;
15132;SDS011;7667;51.232;17.110;2022-11-10T16:06:53;7.50;;;3.07;;
15132;SDS011;7667;51.232;17.110;2022-11-10T16:09:22;5.23;;;2.47;;
15132;SDS011;7667;51.232;17.110;2022-11-10T16:11:50;3.37;;;1.90;;
15132;SDS011;7667;51.232;17.110;2022-11-10T16:14:17;4.90;;;1.90;;
15132;SDS011;7667;51.232;17.110;2022-11-10T16:16:44;4.70;;;2.23;;
15132;SDS011;7667;51.232;17.110;2022-11-10T16:19:12;6.53;;;3.17;;
15132;SDS011;7667;51.232;17.110;2022-11-10T16:21:39;4.90;;;2.90;;
15132;SDS011;7667;51.232;17.110;2022-11-10T16:24:07;6.17;;;2.90;;
15132;SDS011;7667;51.232;17.110;2022-11-10T16:26:34;6.33;;;3.13;;
15132;SDS011;7667;51.232;17.110;2022-11-10T16:29:02;3.93;;;2.90;;
15132;SDS011;7667;51.232;17.110;2022-11-10T16:31:36;6.93;;;3.00;;
15132;SDS011;7667;51.232;17.110;2022-11-10T16:34:03;3.90;;;2.97;;
15132;SDS011;7667;51.232;17.110;2022-11-10T16:36:31;7.90;;;3.67;;
15132;SDS011;7667;51.232;17.110;2022-11-10T16:39:00;7.27;;;3.53;;
15132;SDS011;7667;51.232;17.110;2022-11-10T16:41:29;6.63;;;3.90;;
15132;SDS011;7667;51.232;17.110;2022-11-10T16:43:57;10.13;;;5.50;;
15132;SDS011;7667;51.232;17.110;2022-11-10T16:46:25;9.57;;;4.90;;
15132;SDS011;7667;51.232;17.110;2022-11-10T16:48:56;6.80;;;4.10;;
15132;SDS011;7667;51.232;17.110;2022-11-10T16:51:27;6.37;;;4.03;;
15132;SDS011;7667;51.232;17.110;2022-11-10T16:54:15;7.17;;;4.20;;
15132;SDS011;7667;51.232;17.110;2022-11-10T16:56:43;5.53;;;4.00;;
15132;SDS011;7667;51.232;17.110;2022-11-10T16:59:10;8.60;;;4.83;;
15132;SDS011;7667;51.232;17.110;2022-11-10T17:01:39;8.60;;;4.10;;
15132;SDS011;7667;51.232;17.110;2022-11-10T17:04:09;7.90;;;4.10;;